Time;durP1;ratioP1;P1;durP2;ratioP2;P2;SDS_P1;SDS_P2;PMS_P1;PMS_P2;Temp;Humidity;BMP_temperature;BMP_pressure;BME280_temperature;BME280_humidity;BME280_pressure;Samples;Min_cycle;Max_cycle;Signal;HPM_P1;HPM_P2
2024/03/05 00:02:54;;;;;;;35.10;22.10;;;;;;;5.18;80.71;99685.14;130814;1259;107887;-79
2024/03/05 00:05:59;;;;;;;29.70;19.50;;;;;;;5.12;80.78;99684.36;130810;1260;106872;-80
2024/03/05 00:09:05;;;;;;;29.00;18.80;;;;;;;5.08;80.95;99680.98;130863;1254;108533;-79
2024/03/05 00:12:12;;;;;;;30.00;18.50;;;;;;;5.07;81.29;99678.04;130829;1259;108889;-79
2024/03/05 00:15:17;;;;;;;32.60;20.30;;;;;;;5.07;81.26;99684.27;130971;1259;108724;-80
2024/03/05 00:18:23;;;;;;;29.40;20.20;;;;;;;5.08;81.33;99691.68;130887;1254;107663;-79
2024/03/05 00:21:30;;;;;;;30.20;20.40;;;;;;;5.12;81.21;99696.18;130774;1260;108431;-79
2024/03/05 00:24:36;;;;;;;30.40;20.30;;;;;;;5.15;81.08;99695.96;130790;1255;106496;-80
2024/03/05 00:27:41;;;;;;;31.30;20.70;;;;;;;5.17;81.12;99697.20;130809;1255;106596;-79
2024/03/05 00:30:47;;;;;;;29.40;21.00;;;;;;;5.18;81.30;99695.99;130733;1260;107928;-79
2024/03/05 00:33:53;;;;;;;30.20;20.40;;;;;;;5.20;81.38;99698.84;130890;1254;106727;-80
2024/03/05 00:36:59;;;;;;;29.00;20.00;;;;;;;5.21;81.23;99697.72;130818;1260;107501;-79
2024/03/05 00:40:08;;;;;;;27.40;17.90;;;;;;;5.14;81.11;99699.38;130815;1258;106698;-79
2024/03/05 00:43:14;;;;;;;23.80;16.30;;;;;;;5.10;81.39;99707.59;130749;1260;107763;-79
2024/03/05 00:46:20;;;;;;;25.60;17.50;;;;;;;5.13;81.47;99708.40;130819;1259;107700;-79
2024/03/05 00:49:26;;;;;;;24.90;17.10;;;;;;;5.13;81.32;99708.10;130839;1259;107558;-79
2024/03/05 00:52:33;;;;;;;27.30;18.60;;;;;;;5.14;81.12;99714.34;130804;1258;106386;-79
2024/03/05 00:55:39;;;;;;;27.40;19.50;;;;;;;5.05;81.67;99719.64;130876;1260;106522;-79
2024/03/05 00:58:45;;;;;;;26.60;18.30;;;;;;;4.96;81.59;99718.02;130796;1260;106656;-79
2024/03/05 01:01:50;;;;;;;25.80;17.70;;;;;;;4.88;81.44;99720.10;130767;1259;108697;-79
2024/03/05 01:04:56;;;;;;;27.10;19.10;;;;;;;4.74;81.89;99722.48;130793;1268;107147;-79
2024/03/05 01:08:02;;;;;;;25.50;17.00;;;;;;;4.69;81.94;99718.70;130812;1260;109434;-80
2024/03/05 01:11:08;;;;;;;23.40;15.70;;;;;;;4.68;81.92;99721.01;130784;1254;108647;-79
2024/03/05 01:14:15;;;;;;;21.90;14.90;;;;;;;4.68;82.08;99723.30;130762;1259;108664;-79
2024/03/05 01:17:20;;;;;;;22.00;15.90;;;;;;;4.65;82.16;99721.26;130739;1254;107833;-80
2024/03/05 01:20:26;;;;;;;22.90;16.40;;;;;;;4.64;82.13;99725.53;130822;1258;107910;-79
2024/03/05 01:23:32;;;;;;;23.90;16.30;;;;;;;4.63;82.35;99726.22;130962;1260;106520;-80
2024/03/05 01:26:38;;;;;;;22.50;15.80;;;;;;;4.62;82.17;99722.03;131029;1258;106119;-80
2024/03/05 01:29:44;;;;;;;22.40;16.50;;;;;;;4.63;81.94;99723.55;131046;1254;108698;-80
2024/03/05 01:32:51;;;;;;;24.70;16.60;;;;;;;4.61;82.04;99727.06;130871;1259;108356;-79
2024/03/05 01:35:57;;;;;;;24.20;15.40;;;;;;;4.58;82.25;99732.27;130813;1261;107353;-80
2024/03/05 01:39:04;;;;;;;22.50;15.50;;;;;;;4.56;81.90;99732.63;130978;1254;107648;-79
2024/03/05 01:42:09;;;;;;;20.20;14.40;;;;;;;4.57;82.05;99731.99;130965;1259;108703;-79
2024/03/05 01:45:18;;;;;;;21.50;15.30;;;;;;;4.58;82.40;99730.84;130956;1254;108511;-79
2024/03/05 01:48:24;;;;;;;20.00;14.80;;;;;;;4.64;82.24;99736.55;130989;1259;106498;-80
2024/03/05 01:51:30;;;;;;;21.70;15.60;;;;;;;4.71;82.26;99726.41;130928;1261;106638;-80
2024/03/05 01:54:36;;;;;;;21.70;14.60;;;;;;;4.72;82.40;99726.33;130992;1258;106265;-80
2024/03/05 01:57:44;;;;;;;24.00;16.00;;;;;;;4.65;82.52;99725.69;130925;1260;108496;-80
2024/03/05 02:00:50;;;;;;;24.50;16.50;;;;;;;4.49;82.78;99726.64;130964;1258;106352;-80
2024/03/05 02:03:56;;;;;;;25.50;16.40;;;;;;;4.44;82.95;99725.70;130932;1256;106706;-79
2024/03/05 02:07:05;;;;;;;23.80;15.20;;;;;;;4.38;82.95;99724.23;130951;1261;106342;-79
2024/03/05 02:10:12;;;;;;;23.10;15.40;;;;;;;4.37;83.02;99719.18;130985;1260;108149;-79
2024/03/05 02:13:17;;;;;;;20.40;14.30;;;;;;;4.42;82.86;99715.23;130776;1261;108464;-78
2024/03/05 02:16:23;;;;;;;20.60;14.30;;;;;;;4.52;82.71;99714.40;130857;1254;108645;-79
2024/03/05 02:19:28;;;;;;;21.80;15.70;;;;;;;4.54;82.63;99714.64;130761;1259;108598;-78
2024/03/05 02:22:34;;;;;;;23.70;16.10;;;;;;;4.49;82.72;99708.65;130751;1255;106630;-79
2024/03/05 02:25:40;;;;;;;23.50;15.80;;;;;;;4.47;82.71;99710.80;130780;1254;108436;-79
2024/03/05 02:28:47;;;;;;;20.10;14.20;;;;;;;4.49;82.78;99706.42;130746;1255;107749;-79
2024/03/05 02:31:53;;;;;;;21.00;14.10;;;;;;;4.46;82.72;99705.62;130797;1261;107865;-79
2024/03/05 02:34:59;;;;;;;19.40;13.30;;;;;;;4.38;82.95;99707.17;130758;1259;108664;-78
2024/03/05 02:38:05;;;;;;;17.40;12.20;;;;;;;4.31;83.34;99708.10;130752;1259;107952;-78
2024/03/05 02:41:11;;;;;;;17.70;12.50;;;;;;;4.26;83.24;99715.02;130557;1259;106648;-79
2024/03/05 02:44:17;;;;;;;19.20;13.30;;;;;;;4.33;83.15;99715.66;130742;1260;107737;-80
2024/03/05 02:47:23;;;;;;;18.90;13.20;;;;;;;4.39;83.02;99721.50;130744;1254;106961;-79
2024/03/05 02:50:28;;;;;;;18.50;13.50;;;;;;;4.43;82.82;99721.04;130719;1255;107467;-78
2024/03/05 02:53:34;;;;;;;18.10;13.20;;;;;;;4.46;82.78;99726.03;130735;1261;107615;-81
2024/03/05 02:56:40;;;;;;;18.90;13.50;;;;;;;4.51;82.95;99728.80;131021;1254;106930;-82
2024/03/05 02:59:45;;;;;;;20.00;13.90;;;;;;;4.46;82.95;99732.58;130943;1259;107546;-79
2024/03/05 03:02:51;;;;;;;19.60;12.90;;;;;;;4.37;83.17;99729.75;130801;1258;106388;-79
2024/03/05 03:05:57;;;;;;;18.60;12.90;;;;;;;4.28;83.08;99729.61;130762;1270;108771;-79
2024/03/05 03:09:03;;;;;;;18.50;12.20;;;;;;;4.29;83.27;99731.27;130991;1258;108916;-80
2024/03/05 03:12:09;;;;;;;18.30;12.60;;;;;;;4.33;83.13;99734.44;130953;1258;107467;-80
2024/03/05 03:15:15;;;;;;;19.60;13.50;;;;;;;4.40;83.13;99736.36;131045;1254;109143;-80
2024/03/05 03:18:21;;;;;;;19.50;13.50;;;;;;;4.44;83.22;99738.02;130982;1271;108455;-79
2024/03/05 03:21:27;;;;;;;18.20;13.00;;;;;;;4.41;83.51;99738.77;130949;1255;107556;-80
2024/03/05 03:24:32;;;;;;;19.20;13.00;;;;;;;4.33;83.15;99739.59;130999;1261;108879;-80
2024/03/05 03:27:38;;;;;;;18.00;13.10;;;;;;;4.29;83.33;99728.09;130987;1256;108019;-80
2024/03/05 03:30:44;;;;;;;18.60;12.20;;;;;;;4.27;83.42;99724.61;130942;1255;108061;-80
2024/03/05 03:33:49;;;;;;;16.90;11.60;;;;;;;4.28;83.49;99730.84;130918;1258;107889;-80
2024/03/05 03:36:55;;;;;;;15.70;10.80;;;;;;;4.24;83.48;99731.86;130966;1254;108661;-80
2024/03/05 03:40:00;;;;;;;16.30;11.50;;;;;;;4.19;83.55;99734.20;130983;1254;106870;-80
2024/03/05 03:43:06;;;;;;;16.60;11.80;;;;;;;4.21;83.61;99725.63;130962;1260;107802;-79
2024/03/05 03:46:12;;;;;;;17.80;12.00;;;;;;;4.28;83.42;99725.20;131001;1258;108663;-80
2024/03/05 03:49:21;;;;;;;18.30;11.70;;;;;;;4.29;83.59;99729.68;131029;1254;108693;-80
2024/03/05 03:52:27;;;;;;;19.40;12.30;;;;;;;4.20;83.35;99731.02;130982;1258;107748;-79
2024/03/05 03:55:33;;;;;;;17.50;11.50;;;;;;;4.12;83.61;99736.72;130879;1254;108491;-80
2024/03/05 03:58:41;;;;;;;15.80;10.40;;;;;;;4.12;83.74;99743.45;130964;1259;107568;-79
2024/03/05 04:01:49;;;;;;;15.00;9.90;;;;;;;4.11;83.78;99743.47;130999;1261;107728;-79
2024/03/05 04:04:55;;;;;;;14.70;10.30;;;;;;;4.20;83.84;99746.11;130834;1258;108745;-79
2024/03/05 04:08:00;;;;;;;15.20;10.30;;;;;;;4.26;83.73;99743.31;130935;1258;107723;-79
2024/03/05 04:11:06;;;;;;;15.50;10.90;;;;;;;4.32;83.81;99747.23;130981;1254;107049;-80
2024/03/05 04:14:12;;;;;;;16.50;11.00;;;;;;;4.37;83.69;99743.85;131019;1259;107683;-79
2024/03/05 04:17:19;;;;;;;16.50;11.60;;;;;;;4.34;83.74;99742.86;130784;1259;106844;-79
2024/03/05 04:20:26;;;;;;;18.00;12.10;;;;;;;4.28;83.87;99753.52;130714;1254;107432;-79
2024/03/05 04:23:32;;;;;;;17.70;11.40;;;;;;;4.22;83.83;99763.02;130969;1261;107641;-79
2024/03/05 04:26:38;;;;;;;16.90;10.50;;;;;;;4.14;83.78;99768.93;131019;1259;107629;-79
2024/03/05 04:29:47;;;;;;;15.40;10.60;;;;;;;4.12;84.24;99768.74;130970;1256;106937;-79
2024/03/05 04:32:54;;;;;;;17.60;10.90;;;;;;;4.17;84.11;99762.37;130905;1254;108851;-79
2024/03/05 04:35:59;;;;;;;16.30;10.80;;;;;;;4.25;83.95;99764.34;130643;1259;108755;-79
2024/03/05 04:39:06;;;;;;;15.90;10.90;;;;;;;4.27;83.94;99766.52;130727;1258;108738;-80
2024/03/05 04:42:13;;;;;;;16.00;11.30;;;;;;;4.23;83.99;99767.37;130736;1254;106488;-80
2024/03/05 04:45:19;;;;;;;15.20;10.70;;;;;;;4.18;84.12;99767.79;131038;1255;108585;-80
2024/03/05 04:48:24;;;;;;;17.50;11.70;;;;;;;4.08;84.26;99771.20;130958;1254;108511;-79
2024/03/05 04:51:30;;;;;;;15.10;10.20;;;;;;;4.07;84.47;99773.77;130902;1254;106068;-79
2024/03/05 04:54:36;;;;;;;17.90;10.10;;;;;;;4.15;84.19;99775.27;130940;1255;106508;-79
2024/03/05 04:57:42;;;;;;;15.10;10.10;;;;;;;4.20;84.13;99776.42;130927;1255;107171;-79
2024/03/05 05:00:48;;;;;;;15.90;10.20;;;;;;;4.25;84.05;99775.84;130895;1254;108664;-79
2024/03/05 05:03:54;;;;;;;17.30;11.30;;;;;;;4.29;84.21;99775.10;130938;1259;107324;-79
2024/03/05 05:06:59;;;;;;;15.10;10.60;;;;;;;4.29;84.05;99779.55;130809;1258;107087;-79
2024/03/05 05:10:06;;;;;;;17.60;11.50;;;;;;;4.27;84.09;99781.98;130898;1254;105794;-79
2024/03/05 05:13:12;;;;;;;15.50;11.00;;;;;;;4.30;84.09;99784.56;130764;1269;108667;-78
2024/03/05 05:16:18;;;;;;;15.90;10.80;;;;;;;4.35;84.06;99778.00;130784;1258;107341;-78
2024/03/05 05:19:25;;;;;;;15.50;10.50;;;;;;;4.34;83.81;99773.48;130735;1255;108649;-79
2024/03/05 05:22:30;;;;;;;15.30;10.20;;;;;;;4.30;83.76;99774.84;130722;1259;106264;-78
2024/03/05 05:25:37;;;;;;;14.80;10.00;;;;;;;4.32;83.88;99773.80;130758;1258;108841;-79
2024/03/05 05:28:42;;;;;;;15.90;10.40;;;;;;;4.38;83.88;99781.64;130742;1254;109003;-80
2024/03/05 05:31:48;;;;;;;14.80;10.30;;;;;;;4.46;83.62;99785.18;130783;1260;108105;-79
2024/03/05 05:34:54;;;;;;;16.20;10.30;;;;;;;4.40;83.08;99788.16;131023;1254;108635;-79
2024/03/05 05:37:59;;;;;;;14.00;9.80;;;;;;;4.34;83.25;99792.30;130971;1258;108853;-79
2024/03/05 05:41:05;;;;;;;13.60;9.20;;;;;;;4.33;83.31;99798.23;130993;1258;108527;-79
2024/03/05 05:44:11;;;;;;;13.20;9.20;;;;;;;4.28;82.91;99799.70;130881;1254;107307;-80
2024/03/05 05:47:17;;;;;;;14.30;9.90;;;;;;;4.16;82.79;99800.81;131136;1256;107770;-81
2024/03/05 05:50:28;;;;;;;14.70;10.20;;;;;;;4.07;82.75;99807.01;131255;1255;107611;-80
2024/03/05 05:53:34;;;;;;;14.50;10.30;;;;;;;4.02;82.79;99801.98;134888;1254;108056;-81
2024/03/05 05:56:41;;;;;;;14.10;8.80;;;;;;;4.00;82.95;99804.23;134878;1254;106715;-81
2024/03/05 05:59:48;;;;;;;13.40;9.30;;;;;;;3.97;82.59;99801.86;134807;1254;106693;-81
2024/03/05 06:02:55;;;;;;;12.60;8.40;;;;;;;3.94;82.75;99801.88;131372;1254;106337;-80
2024/03/05 06:06:01;;;;;;;12.40;8.60;;;;;;;3.96;82.52;99801.36;130804;1258;107786;-80
2024/03/05 06:09:08;;;;;;;11.00;7.70;;;;;;;3.92;82.19;99804.48;130852;1254;106277;-80
2024/03/05 06:12:14;;;;;;;12.90;8.60;;;;;;;3.91;82.27;99806.86;130887;1257;106340;-82
2024/03/05 06:15:20;;;;;;;12.90;9.10;;;;;;;3.90;82.08;99808.16;130841;1257;107784;-80
2024/03/05 06:18:25;;;;;;;13.60;9.80;;;;;;;3.82;81.99;99812.70;130797;1258;107629;-80
2024/03/05 06:21:31;;;;;;;13.30;9.50;;;;;;;3.65;82.13;99814.74;130849;1258;106499;-80
2024/03/05 06:24:37;;;;;;;13.90;10.00;;;;;;;3.53;82.34;99817.74;130773;1258;107862;-80
2024/03/05 06:27:43;;;;;;;13.40;8.90;;;;;;;3.55;82.72;99820.37;130771;1258;108589;-80
2024/03/05 06:30:51;;;;;;;14.50;9.30;;;;;;;3.59;82.68;99823.83;130704;1258;108156;-80
2024/03/05 06:33:56;;;;;;;11.70;8.60;;;;;;;3.62;82.55;99827.26;130829;1259;106424;-80
2024/03/05 06:37:02;;;;;;;13.30;9.20;;;;;;;3.64;82.31;99829.39;130818;1255;108478;-81
2024/03/05 06:40:10;;;;;;;21.20;14.30;;;;;;;3.62;82.55;99829.70;130854;1258;107433;-79
2024/03/05 06:43:20;;;;;;;22.70;15.70;;;;;;;3.59;82.21;99833.09;130706;1261;108684;-79
2024/03/05 06:46:29;;;;;;;41.00;25.10;;;;;;;3.50;82.40;99832.02;130995;1254;106527;-79
2024/03/05 06:49:38;;;;;;;26.80;17.70;;;;;;;3.44;82.57;99834.45;130841;1256;106463;-79
2024/03/05 06:59:30;;;;;;;22.80;15.20;;;;;;;3.28;82.77;99843.77;130728;1254;108271;-81
2024/03/05 07:02:36;;;;;;;29.50;19.30;;;;;;;3.21;82.86;99846.20;130704;1254;108417;-81
2024/03/05 07:05:42;;;;;;;28.50;18.60;;;;;;;3.12;82.86;99852.83;130760;1271;108744;-81
2024/03/05 07:08:48;;;;;;;25.70;17.60;;;;;;;3.13;83.13;99856.64;130939;1258;107748;-80
2024/03/05 07:11:57;;;;;;;17.20;13.00;;;;;;;3.25;83.15;99861.54;130777;1260;108635;-79
2024/03/05 07:15:03;;;;;;;18.30;12.90;;;;;;;3.29;82.91;99859.46;130614;1261;107798;-79
2024/03/05 07:18:10;;;;;;;25.30;17.40;;;;;;;3.32;83.03;99860.46;130484;1256;107805;-79
2024/03/05 07:21:17;;;;;;;113.60;60.80;;;;;;;3.37;82.96;99868.05;130451;1260;106685;-79
2024/03/05 07:24:23;;;;;;;47.40;27.60;;;;;;;3.41;83.05;99869.45;130478;1256;107814;-80
2024/03/05 07:27:30;;;;;;;49.60;28.30;;;;;;;3.49;83.05;99871.52;130554;1260;106972;-80
2024/03/05 07:30:37;;;;;;;27.80;18.10;;;;;;;3.64;83.37;99872.48;130489;1256;108585;-79
2024/03/05 07:33:43;;;;;;;21.20;13.80;;;;;;;3.77;82.85;99874.84;130508;1258;107564;-79
2024/03/05 07:36:49;;;;;;;18.60;11.90;;;;;;;3.74;82.66;99872.95;130634;1260;108186;-80
2024/03/05 07:39:54;;;;;;;18.60;13.20;;;;;;;3.72;82.88;99873.61;130514;1261;106768;-79
2024/03/05 07:43:02;;;;;;;15.40;11.70;;;;;;;3.73;82.86;99877.93;130617;1256;107679;-80
2024/03/05 07:46:07;;;;;;;33.80;22.20;;;;;;;3.82;83.18;99879.02;130674;1261;109335;-79
2024/03/05 07:49:13;;;;;;;20.50;14.40;;;;;;;3.94;82.94;99880.22;130622;1255;107219;-79
2024/03/05 07:52:18;;;;;;;14.40;10.90;;;;;;;4.05;83.01;99880.52;130476;1261;108436;-81
2024/03/05 07:55:25;;;;;;;15.70;11.30;;;;;;;4.22;82.93;99881.32;130628;1260;108854;-81
2024/03/05 07:58:31;;;;;;;13.70;10.00;;;;;;;4.39;82.54;99882.46;130482;1256;107438;-81
2024/03/05 08:01:37;;;;;;;15.40;11.20;;;;;;;4.48;82.63;99884.23;130483;1260;108723;-80
2024/03/05 08:04:42;;;;;;;15.50;10.60;;;;;;;4.60;82.71;99882.73;130672;1255;107731;-80
2024/03/05 08:07:48;;;;;;;18.10;12.70;;;;;;;4.66;82.69;99885.73;130682;1255;108596;-80
2024/03/05 08:10:56;;;;;;;18.40;13.00;;;;;;;4.75;82.59;99888.76;130724;1257;108850;-77
2024/03/05 08:14:03;;;;;;;37.80;29.30;;;;;;;4.76;82.39;99894.27;130548;1257;107760;-80
2024/03/05 08:17:09;;;;;;;30.50;22.80;;;;;;;4.71;82.31;99893.11;130750;1254;108744;-81
2024/03/05 08:20:16;;;;;;;25.90;18.20;;;;;;;4.69;82.72;99894.65;130841;1259;107941;-81
2024/03/05 08:23:22;;;;;;;30.10;23.50;;;;;;;4.67;82.29;99889.88;131205;1259;108696;-83
2024/03/05 08:26:28;;;;;;;24.90;18.50;;;;;;;4.56;82.24;99889.40;130975;1261;108136;-82
2024/03/05 08:29:39;;;;;;;21.40;14.80;;;;;;;4.47;82.62;99893.96;130953;1254;108643;-84
2024/03/05 08:32:46;;;;;;;22.30;16.40;;;;;;;4.48;82.85;99894.25;130685;1257;107655;-82
2024/03/05 08:35:52;;;;;;;16.70;12.40;;;;;;;4.47;82.64;99891.83;130685;1254;107050;-84
2024/03/05 08:38:57;;;;;;;13.70;10.20;;;;;;;4.49;82.91;99895.73;130955;1254;108481;-84
2024/03/05 08:42:03;;;;;;;14.30;9.70;;;;;;;4.58;83.01;99897.64;130793;1258;106556;-83
2024/03/05 08:45:10;;;;;;;12.70;9.60;;;;;;;4.72;82.99;99897.23;130985;1258;105881;-81
2024/03/05 08:48:16;;;;;;;13.10;9.60;;;;;;;4.86;82.82;99904.96;130917;1256;108671;-84
2024/03/05 08:51:21;;;;;;;15.00;10.00;;;;;;;4.89;82.54;99908.59;130728;1258;108673;-83
2024/03/05 08:54:30;;;;;;;14.70;10.10;;;;;;;4.85;82.47;99910.98;130903;1258;108812;-83
2024/03/05 08:57:37;;;;;;;13.10;10.30;;;;;;;4.85;82.44;99909.98;130732;1259;106800;-81
2024/03/05 09:00:42;;;;;;;16.90;11.30;;;;;;;4.83;82.81;99909.36;130643;1258;107916;-82
2024/03/05 09:03:49;;;;;;;12.50;8.90;;;;;;;4.89;83.04;99914.07;130647;1257;107577;-83
2024/03/05 09:06:55;;;;;;;14.20;9.20;;;;;;;4.97;82.75;99917.81;130632;1259;107555;-86
2024/03/05 09:10:00;;;;;;;13.50;9.10;;;;;;;4.99;82.70;99920.23;130738;1258;106776;-85
2024/03/05 09:13:06;;;;;;;12.70;9.00;;;;;;;5.05;82.81;99923.96;130809;1258;106424;-85
2024/03/05 09:16:12;;;;;;;16.80;11.40;;;;;;;5.18;82.66;99929.99;130606;1258;108704;-87
2024/03/05 09:19:20;;;;;;;16.50;11.10;;;;;;;5.20;82.44;99928.09;130802;1254;107422;-86
2024/03/05 09:22:25;;;;;;;17.00;11.30;;;;;;;5.21;82.62;99929.05;130738;1259;108252;-82
2024/03/05 09:25:32;;;;;;;16.40;11.70;;;;;;;5.23;82.39;99931.38;130859;1261;106442;-83
2024/03/05 09:28:37;;;;;;;14.70;10.30;;;;;;;5.27;82.80;99935.80;130584;1261;108803;-84
2024/03/05 09:31:43;;;;;;;12.90;8.80;;;;;;;5.26;82.37;99938.11;130557;1256;107848;-83
2024/03/05 09:34:52;;;;;;;11.90;8.10;;;;;;;5.18;82.77;99938.10;130595;1254;108676;-81
2024/03/05 09:37:58;;;;;;;9.40;6.00;;;;;;;5.23;82.69;99941.05;130716;1258;108571;-82
2024/03/05 09:41:05;;;;;;;8.80;6.30;;;;;;;5.20;82.75;99945.73;130996;1256;108679;-90
2024/03/05 09:44:12;;;;;;;12.00;7.50;;;;;;;5.23;82.94;99949.67;130776;1260;107755;-81
2024/03/05 09:47:20;;;;;;;11.00;7.50;;;;;;;5.33;82.90;99950.30;130740;1260;106726;-80
2024/03/05 09:50:27;;;;;;;19.10;12.60;;;;;;;5.41;82.84;99951.92;130695;1257;107708;-81
2024/03/05 09:53:33;;;;;;;12.60;8.50;;;;;;;5.47;82.94;99951.55;130652;1261;107682;-82
2024/03/05 09:56:41;;;;;;;12.70;9.60;;;;;;;5.55;83.18;99956.27;130773;1260;106996;-84
2024/03/05 09:59:48;;;;;;;10.90;8.80;;;;;;;5.50;82.86;99958.57;130911;1256;108522;-81
2024/03/05 10:02:53;;;;;;;23.40;14.60;;;;;;;5.48;82.89;99960.98;130898;1254;108377;-81
2024/03/05 10:05:59;;;;;;;28.90;17.40;;;;;;;5.40;82.84;99964.89;130629;1254;106647;-80
2024/03/05 10:09:05;;;;;;;16.40;9.90;;;;;;;5.26;83.10;99966.20;131083;1254;109302;-81
2024/03/05 10:12:13;;;;;;;8.50;5.60;;;;;;;5.24;83.11;99967.46;130641;1258;108509;-81
2024/03/05 10:15:20;;;;;;;10.70;6.80;;;;;;;5.26;83.45;99969.20;130718;1258;108787;-82
2024/03/05 10:18:34;;;;;;;12.30;7.80;;;;;;;5.34;82.98;99972.77;130777;1256;108375;-81
2024/03/05 10:21:40;;;;;;;18.60;11.90;;;;;;;5.36;83.30;99973.86;130732;1257;108151;-82
2024/03/05 10:24:46;;;;;;;14.70;9.90;;;;;;;5.45;83.41;99975.77;130862;1259;108575;-81
2024/03/05 10:27:52;;;;;;;18.30;11.70;;;;;;;5.56;83.72;99976.23;130650;1261;108674;-80
2024/03/05 10:31:04;;;;;;;12.80;8.40;;;;;;;5.69;83.48;99977.46;130816;1258;106364;-82
2024/03/05 10:34:11;;;;;;;11.70;8.00;;;;;;;5.74;83.46;99982.02;130836;1255;106423;-81
2024/03/05 10:37:17;;;;;;;13.80;9.40;;;;;;;5.74;83.48;99975.98;130825;1255;107405;-81
2024/03/05 10:40:23;;;;;;;18.30;13.40;;;;;;;5.75;83.45;99976.25;130839;1258;108643;-83
2024/03/05 10:43:31;;;;;;;10.80;7.70;;;;;;;5.80;83.71;99977.23;130847;1256;107681;-82
2024/03/05 10:46:38;;;;;;;9.50;7.10;;;;;;;5.84;83.40;99981.66;130921;1255;108416;-80
2024/03/05 10:49:45;;;;;;;7.70;5.60;;;;;;;5.83;83.12;99980.33;131802;1254;108808;-88
2024/03/05 10:52:53;;;;;;;8.50;6.20;;;;;;;5.88;83.54;99981.30;131551;1256;107231;-88
2024/03/05 10:55:59;;;;;;;8.10;6.00;;;;;;;6.00;83.13;99982.45;131109;1260;107246;-87
2024/03/05 11:02:27;;;;;;;9.00;6.40;;;;;;;6.16;83.30;99988.21;131223;1260;108822;-91
2024/03/05 11:05:40;;;;;;;9.10;6.80;;;;;;;6.24;83.11;99986.43;130920;1258;106343;-91
2024/03/05 11:08:48;;;;;;;9.00;6.40;;;;;;;6.28;82.87;99993.15;130603;1256;107075;-85
2024/03/05 11:12:00;;;;;;;8.60;6.50;;;;;;;6.34;82.89;99985.56;130550;1260;107675;-85
2024/03/05 11:15:11;;;;;;;8.70;5.60;;;;;;;6.42;82.82;99990.01;130855;1261;106690;-83
2024/03/05 11:18:33;;;;;;;12.00;7.70;;;;;;;6.53;82.96;99986.56;130451;1261;107112;-84
2024/03/05 11:21:41;;;;;;;8.80;6.00;;;;;;;6.71;83.30;99987.66;130646;1256;108516;-83
2024/03/05 11:24:47;;;;;;;11.10;7.70;;;;;;;6.85;82.61;99985.93;130902;1256;108697;-82
2024/03/05 11:27:57;;;;;;;10.10;7.80;;;;;;;6.95;82.41;99984.69;130591;1260;108053;-83
2024/03/05 11:31:16;;;;;;;10.60;7.50;;;;;;;7.09;82.59;99986.38;130608;1262;106934;-83
2024/03/05 11:34:22;;;;;;;20.50;13.00;;;;;;;7.23;82.70;99983.60;130667;1256;108508;-82
2024/03/05 11:37:28;;;;;;;35.60;19.90;;;;;;;7.30;82.74;99990.96;130740;1256;106682;-84
2024/03/05 11:40:36;;;;;;;19.70;11.90;;;;;;;7.32;82.57;99990.44;130965;1256;106430;-84
2024/03/05 11:43:42;;;;;;;39.60;25.60;;;;;;;7.27;82.65;99991.04;130685;1261;106833;-84
2024/03/05 11:46:49;;;;;;;19.00;12.30;;;;;;;7.26;82.65;99991.33;130759;1261;108707;-85
2024/03/05 11:49:59;;;;;;;17.00;10.70;;;;;;;7.27;82.60;99994.70;130692;1259;108677;-84
2024/03/05 11:53:05;;;;;;;15.30;10.50;;;;;;;7.31;82.73;99999.17;130731;1259;107897;-81
2024/03/05 11:56:11;;;;;;;21.70;12.80;;;;;;;7.37;82.70;99999.69;130863;1258;106344;-84
2024/03/05 11:59:16;;;;;;;18.40;12.20;;;;;;;7.38;82.69;100006.80;131100;1254;107687;-84
2024/03/05 12:02:22;;;;;;;20.90;13.90;;;;;;;7.43;82.40;100007.40;130775;1256;107087;-82
2024/03/05 12:05:30;;;;;;;25.80;16.40;;;;;;;7.51;82.73;100005.47;130561;1259;106830;-82
2024/03/05 12:08:38;;;;;;;27.50;17.00;;;;;;;7.59;82.43;100015.70;130772;1256;108489;-87
2024/03/05 12:11:57;;;;;;;26.20;16.40;;;;;;;7.57;82.17;100014.73;131077;1261;108663;-87
2024/03/05 12:15:04;;;;;;;24.00;15.80;;;;;;;7.45;82.21;100016.12;130741;1259;107815;-86
2024/03/05 12:18:11;;;;;;;25.20;16.50;;;;;;;7.35;82.38;100019.10;130689;1260;107660;-84
2024/03/05 12:21:17;;;;;;;26.80;18.00;;;;;;;7.26;81.69;100021.55;130520;1256;107740;-83
2024/03/05 12:24:23;;;;;;;29.70;20.60;;;;;;;7.12;82.07;100025.23;130700;1262;106690;-84
2024/03/05 12:27:34;;;;;;;23.20;15.20;;;;;;;7.00;82.73;100024.92;130851;1256;108663;-87
2024/03/05 12:30:40;;;;;;;21.50;12.60;;;;;;;6.97;82.56;100028.52;130640;1256;107692;-79
2024/03/05 12:33:46;;;;;;;22.80;15.00;;;;;;;7.07;82.66;100031.92;130542;1256;107855;-79
2024/03/05 12:36:52;;;;;;;21.90;14.50;;;;;;;7.20;82.66;100030.23;130632;1262;108720;-81
2024/03/05 12:40:05;;;;;;;18.10;13.30;;;;;;;7.30;82.70;100029.32;130761;1260;107643;-80
2024/03/05 12:43:11;;;;;;;17.30;12.40;;;;;;;7.38;82.08;100031.80;130681;1257;108541;-80
2024/03/05 12:46:20;;;;;;;15.60;11.50;;;;;;;7.45;82.00;100029.23;130607;1260;107505;-79
2024/03/05 12:49:29;;;;;;;15.70;11.10;;;;;;;7.51;82.39;100030.27;131181;1260;106492;-81
2024/03/05 12:52:35;;;;;;;16.40;11.90;;;;;;;7.56;82.09;100031.91;130973;1261;107451;-82
2024/03/05 12:55:41;;;;;;;13.50;10.20;;;;;;;7.59;81.96;100033.84;133754;1256;108592;-80
2024/03/05 12:58:46;;;;;;;15.80;10.50;;;;;;;7.62;81.85;100035.13;132643;1256;107747;-80
2024/03/05 13:01:53;;;;;;;16.60;9.80;;;;;;;7.62;81.74;100041.29;130795;1259;107741;-79
2024/03/05 13:04:59;;;;;;;18.50;10.10;;;;;;;7.61;81.54;100045.41;130813;1258;106782;-80
2024/03/05 13:08:06;;;;;;;17.00;12.10;;;;;;;7.64;81.81;100045.84;130619;1259;108656;-81
2024/03/05 13:11:11;;;;;;;15.30;10.50;;;;;;;7.69;81.96;100044.95;130812;1258;108600;-81
2024/03/05 13:14:17;;;;;;;21.60;15.50;;;;;;;7.65;81.64;100050.54;130714;1258;107488;-81
2024/03/05 13:17:22;;;;;;;23.70;19.00;;;;;;;7.61;81.82;100050.42;133355;1254;108812;-78
2024/03/05 13:20:30;;;;;;;20.90;16.20;;;;;;;7.63;81.92;100050.02;130676;1258;106510;-79
2024/03/05 13:23:37;;;;;;;16.20;12.40;;;;;;;7.63;81.81;100054.14;130539;1259;106528;-77
2024/03/05 13:26:46;;;;;;;13.40;10.20;;;;;;;7.63;81.74;100060.71;130653;1258;105875;-82
2024/03/05 13:29:51;;;;;;;35.70;30.50;;;;;;;7.54;81.23;100064.02;130773;1258;108630;-78
2024/03/05 13:32:57;;;;;;;15.10;11.50;;;;;;;7.34;81.04;100064.14;131611;1258;108596;-78
2024/03/05 13:36:03;;;;;;;15.40;12.60;;;;;;;7.24;81.66;100068.92;130632;1260;108647;-77
2024/03/05 13:39:10;;;;;;;11.30;8.20;;;;;;;7.20;81.69;100073.39;130703;1258;107856;-78
2024/03/05 13:42:19;;;;;;;11.80;7.60;;;;;;;7.17;81.81;100072.04;130780;1259;108571;-78
2024/03/05 13:45:27;;;;;;;12.10;8.30;;;;;;;7.11;81.30;100079.30;130627;1256;107031;-80
2024/03/05 13:48:33;;;;;;;10.80;8.40;;;;;;;7.07;81.28;100086.17;130753;1255;107800;-80
2024/03/05 13:51:39;;;;;;;9.50;7.00;;;;;;;7.13;81.58;100087.94;130664;1255;108739;-78
2024/03/05 13:54:45;;;;;;;8.50;6.00;;;;;;;7.22;81.43;100093.52;130587;1259;107470;-78
2024/03/05 13:57:51;;;;;;;10.90;8.00;;;;;;;7.16;80.54;100096.41;130727;1259;108139;-78
2024/03/05 14:01:00;;;;;;;10.00;6.70;;;;;;;7.08;81.52;100095.25;130658;1259;107905;-77
2024/03/05 14:04:09;;;;;;;9.50;6.90;;;;;;;6.96;80.79;100099.19;130886;1253;106721;-79
2024/03/05 14:07:16;;;;;;;8.70;6.20;;;;;;;6.79;80.58;100104.21;130704;1259;108568;-78
2024/03/05 14:10:21;;;;;;;10.10;6.20;;;;;;;6.71;81.72;100108.73;130526;1269;107269;-80
2024/03/05 14:13:27;;;;;;;11.00;7.20;;;;;;;6.62;81.69;100109.12;130505;1254;106508;-78
2024/03/05 14:16:34;;;;;;;12.10;7.80;;;;;;;6.52;81.70;100111.09;130682;1258;106501;-78
2024/03/05 14:19:39;;;;;;;10.70;7.70;;;;;;;6.43;81.44;100118.04;130487;1256;107451;-79